sensor_id;sensor_type;location;lat;lon;timestamp;temperature;humidity
4578;DHT22;2301;47.354;8.528;2023-08-31T00:01:02;19.10;77.20
4578;DHT22;2301;47.354;8.528;2023-08-31T00:03:30;19.10;77.00
4578;DHT22;2301;47.354;8.528;2023-08-31T00:06:02;19.10;76.80
4578;DHT22;2301;47.354;8.528;2023-08-31T00:08:29;19.20;76.20
4578;DHT22;2301;47.354;8.528;2023-08-31T00:10:56;19.10;76.30
4578;DHT22;2301;47.354;8.528;2023-08-31T00:13:24;19.10;76.90
4578;DHT22;2301;47.354;8.528;2023-08-31T00:15:54;19.20;77.10
4578;DHT22;2301;47.354;8.528;2023-08-31T00:18:22;19.20;77.00
4578;DHT22;2301;47.354;8.528;2023-08-31T00:20:49;19.20;77.00
4578;DHT22;2301;47.354;8.528;2023-08-31T00:23:18;19.20;76.50
4578;DHT22;2301;47.354;8.528;2023-08-31T00:25:46;19.10;76.00
4578;DHT22;2301;47.354;8.528;2023-08-31T00:28:14;19.10;75.50
4578;DHT22;2301;47.354;8.528;2023-08-31T00:30:41;19.00;75.40
4578;DHT22;2301;47.354;8.528;2023-08-31T00:33:10;19.10;76.20
4578;DHT22;2301;47.354;8.528;2023-08-31T00:35:37;19.10;75.90
4578;DHT22;2301;47.354;8.528;2023-08-31T00:38:09;19.10;76.00
4578;DHT22;2301;47.354;8.528;2023-08-31T00:40:40;19.00;74.80
4578;DHT22;2301;47.354;8.528;2023-08-31T00:43:10;19.10;76.10
4578;DHT22;2301;47.354;8.528;2023-08-31T00:45:38;19.10;76.50
4578;DHT22;2301;47.354;8.528;2023-08-31T00:48:06;19.10;76.70
4578;DHT22;2301;47.354;8.528;2023-08-31T00:50:33;19.10;76.70
4578;DHT22;2301;47.354;8.528;2023-08-31T00:53:00;19.10;76.30
4578;DHT22;2301;47.354;8.528;2023-08-31T00:55:28;19.10;76.40
4578;DHT22;2301;47.354;8.528;2023-08-31T00:57:58;19.10;76.00
4578;DHT22;2301;47.354;8.528;2023-08-31T01:00:30;19.10;76.10
4578;DHT22;2301;47.354;8.528;2023-08-31T01:03:04;19.10;77.10
4578;DHT22;2301;47.354;8.528;2023-08-31T01:05:38;19.00;76.10
4578;DHT22;2301;47.354;8.528;2023-08-31T01:08:14;19.00;76.30
4578;DHT22;2301;47.354;8.528;2023-08-31T01:10:49;19.00;76.60
4578;DHT22;2301;47.354;8.528;2023-08-31T01:13:23;19.00;76.70
4578;DHT22;2301;47.354;8.528;2023-08-31T01:15:53;19.00;76.90
4578;DHT22;2301;47.354;8.528;2023-08-31T01:18:22;19.00;77.10
4578;DHT22;2301;47.354;8.528;2023-08-31T01:20:55;19.00;77.30
4578;DHT22;2301;47.354;8.528;2023-08-31T01:23:29;19.00;77.30
4578;DHT22;2301;47.354;8.528;2023-08-31T01:25:59;19.00;78.10
4578;DHT22;2301;47.354;8.528;2023-08-31T01:28:26;19.00;77.20
4578;DHT22;2301;47.354;8.528;2023-08-31T01:30:53;19.00;77.10
4578;DHT22;2301;47.354;8.528;2023-08-31T01:33:20;19.00;77.10
4578;DHT22;2301;47.354;8.528;2023-08-31T01:35:49;19.00;77.30
4578;DHT22;2301;47.354;8.528;2023-08-31T01:38:20;19.00;77.20
4578;DHT22;2301;47.354;8.528;2023-08-31T01:40:55;18.90;77.20
4578;DHT22;2301;47.354;8.528;2023-08-31T01:43:25;18.90;77.50
4578;DHT22;2301;47.354;8.528;2023-08-31T01:45:53;18.90;77.50
4578;DHT22;2301;47.354;8.528;2023-08-31T01:48:20;18.90;77.60
4578;DHT22;2301;47.354;8.528;2023-08-31T01:50:47;18.90;77.70
4578;DHT22;2301;47.354;8.528;2023-08-31T01:53:14;18.90;77.90
4578;DHT22;2301;47.354;8.528;2023-08-31T01:55:41;18.90;78.00
4578;DHT22;2301;47.354;8.528;2023-08-31T01:58:08;18.90;77.90
4578;DHT22;2301;47.354;8.528;2023-08-31T02:00:36;18.90;78.00
4578;DHT22;2301;47.354;8.528;2023-08-31T02:03:04;18.90;77.80
4578;DHT22;2301;47.354;8.528;2023-08-31T02:05:31;18.90;77.80
4578;DHT22;2301;47.354;8.528;2023-08-31T02:07:58;18.90;77.80
4578;DHT22;2301;47.354;8.528;2023-08-31T02:10:25;18.90;77.80
4578;DHT22;2301;47.354;8.528;2023-08-31T02:12:52;18.90;77.60
4578;DHT22;2301;47.354;8.528;2023-08-31T02:15:19;19.00;77.50
4578;DHT22;2301;47.354;8.528;2023-08-31T02:17:47;18.90;77.20
4578;DHT22;2301;47.354;8.528;2023-08-31T02:20:14;18.90;77.20
4578;DHT22;2301;47.354;8.528;2023-08-31T02:22:41;18.90;76.90
4578;DHT22;2301;47.354;8.528;2023-08-31T02:25:08;18.90;77.20
4578;DHT22;2301;47.354;8.528;2023-08-31T02:27:35;18.90;76.90
4578;DHT22;2301;47.354;8.528;2023-08-31T02:30:02;18.90;77.30
4578;DHT22;2301;47.354;8.528;2023-08-31T02:32:30;18.90;77.30
4578;DHT22;2301;47.354;8.528;2023-08-31T02:34:58;18.90;77.50
4578;DHT22;2301;47.354;8.528;2023-08-31T02:37:25;18.90;76.50
4578;DHT22;2301;47.354;8.528;2023-08-31T02:39:52;18.90;76.80
4578;DHT22;2301;47.354;8.528;2023-08-31T02:42:19;18.90;77.10
4578;DHT22;2301;47.354;8.528;2023-08-31T02:44:46;18.90;77.20
4578;DHT22;2301;47.354;8.528;2023-08-31T02:47:13;19.00;77.30
4578;DHT22;2301;47.354;8.528;2023-08-31T02:49:40;19.00;77.40
4578;DHT22;2301;47.354;8.528;2023-08-31T02:52:08;19.00;77.10
4578;DHT22;2301;47.354;8.528;2023-08-31T02:54:35;19.00;76.90
4578;DHT22;2301;47.354;8.528;2023-08-31T02:57:02;19.00;77.00
4578;DHT22;2301;47.354;8.528;2023-08-31T02:59:29;19.10;77.30
4578;DHT22;2301;47.354;8.528;2023-08-31T03:01:56;19.10;77.00
4578;DHT22;2301;47.354;8.528;2023-08-31T03:04:23;19.10;76.90
4578;DHT22;2301;47.354;8.528;2023-08-31T03:06:50;19.10;76.80
4578;DHT22;2301;47.354;8.528;2023-08-31T03:09:18;19.10;76.80
4578;DHT22;2301;47.354;8.528;2023-08-31T03:11:46;19.10;76.70
4578;DHT22;2301;47.354;8.528;2023-08-31T03:14:12;19.00;77.00
4578;DHT22;2301;47.354;8.528;2023-08-31T03:16:39;19.00;76.90
4578;DHT22;2301;47.354;8.528;2023-08-31T03:19:06;19.00;77.10
4578;DHT22;2301;47.354;8.528;2023-08-31T03:21:33;19.00;77.10
4578;DHT22;2301;47.354;8.528;2023-08-31T03:24:00;19.00;77.10
4578;DHT22;2301;47.354;8.528;2023-08-31T03:26:28;19.00;78.20
4578;DHT22;2301;47.354;8.528;2023-08-31T03:28:55;19.00;77.50
4578;DHT22;2301;47.354;8.528;2023-08-31T03:31:23;19.00;77.40
4578;DHT22;2301;47.354;8.528;2023-08-31T03:33:50;19.00;77.40
4578;DHT22;2301;47.354;8.528;2023-08-31T03:36:17;19.00;77.00
4578;DHT22;2301;47.354;8.528;2023-08-31T03:38:44;19.00;77.00
4578;DHT22;2301;47.354;8.528;2023-08-31T03:41:11;19.00;77.00
4578;DHT22;2301;47.354;8.528;2023-08-31T03:43:39;19.00;77.30
4578;DHT22;2301;47.354;8.528;2023-08-31T03:46:06;18.90;77.30
4578;DHT22;2301;47.354;8.528;2023-08-31T03:48:33;18.90;77.30
4578;DHT22;2301;47.354;8.528;2023-08-31T03:51:00;18.90;77.50
4578;DHT22;2301;47.354;8.528;2023-08-31T03:53:27;18.90;77.60
4578;DHT22;2301;47.354;8.528;2023-08-31T03:55:54;18.90;77.60
4578;DHT22;2301;47.354;8.528;2023-08-31T03:58:20;18.90;77.60
4578;DHT22;2301;47.354;8.528;2023-08-31T04:00:50;18.90;77.90
4578;DHT22;2301;47.354;8.528;2023-08-31T04:03:17;18.80;77.90
4578;DHT22;2301;47.354;8.528;2023-08-31T04:05:44;18.80;77.80
4578;DHT22;2301;47.354;8.528;2023-08-31T04:08:12;18.80;77.80
4578;DHT22;2301;47.354;8.528;2023-08-31T04:10:39;18.70;78.00
4578;DHT22;2301;47.354;8.528;2023-08-31T04:13:06;18.70;78.30
4578;DHT22;2301;47.354;8.528;2023-08-31T04:15:32;18.70;78.10
4578;DHT22;2301;47.354;8.528;2023-08-31T04:18:01;18.70;78.40
4578;DHT22;2301;47.354;8.528;2023-08-31T04:20:28;18.70;78.60
4578;DHT22;2301;47.354;8.528;2023-08-31T04:22:55;18.70;78.60
4578;DHT22;2301;47.354;8.528;2023-08-31T04:25:22;18.70;78.80
4578;DHT22;2301;47.354;8.528;2023-08-31T04:27:48;18.70;78.60
4578;DHT22;2301;47.354;8.528;2023-08-31T04:30:15;18.70;78.80
4578;DHT22;2301;47.354;8.528;2023-08-31T04:32:43;18.70;78.60
4578;DHT22;2301;47.354;8.528;2023-08-31T04:35:11;18.70;78.60
4578;DHT22;2301;47.354;8.528;2023-08-31T04:37:38;18.70;78.30
4578;DHT22;2301;47.354;8.528;2023-08-31T04:40:06;18.70;78.70
4578;DHT22;2301;47.354;8.528;2023-08-31T04:42:34;18.60;78.50
4578;DHT22;2301;47.354;8.528;2023-08-31T04:45:01;18.60;78.70
4578;DHT22;2301;47.354;8.528;2023-08-31T04:47:28;18.60;79.10
4578;DHT22;2301;47.354;8.528;2023-08-31T04:49:55;18.60;79.70
4578;DHT22;2301;47.354;8.528;2023-08-31T04:52:24;18.60;80.00
4578;DHT22;2301;47.354;8.528;2023-08-31T04:54:51;18.60;80.50
4578;DHT22;2301;47.354;8.528;2023-08-31T04:57:17;18.60;80.70
4578;DHT22;2301;47.354;8.528;2023-08-31T04:59:45;18.50;81.00
4578;DHT22;2301;47.354;8.528;2023-08-31T05:02:12;18.50;81.30
4578;DHT22;2301;47.354;8.528;2023-08-31T05:04:39;18.50;81.60
4578;DHT22;2301;47.354;8.528;2023-08-31T05:07:06;18.50;81.50
4578;DHT22;2301;47.354;8.528;2023-08-31T05:09:34;18.50;81.70
4578;DHT22;2301;47.354;8.528;2023-08-31T05:12:01;18.50;81.70
4578;DHT22;2301;47.354;8.528;2023-08-31T05:14:28;18.50;81.70
4578;DHT22;2301;47.354;8.528;2023-08-31T05:16:55;18.40;81.70
4578;DHT22;2301;47.354;8.528;2023-08-31T05:19:22;18.40;82.10
4578;DHT22;2301;47.354;8.528;2023-08-31T05:21:49;18.30;82.40
4578;DHT22;2301;47.354;8.528;2023-08-31T05:24:16;18.30;82.70
4578;DHT22;2301;47.354;8.528;2023-08-31T05:26:44;18.30;83.10
4578;DHT22;2301;47.354;8.528;2023-08-31T05:29:11;18.30;83.50
4578;DHT22;2301;47.354;8.528;2023-08-31T05:31:37;18.30;83.70
4578;DHT22;2301;47.354;8.528;2023-08-31T05:34:04;18.30;83.50
4578;DHT22;2301;47.354;8.528;2023-08-31T05:36:31;18.30;83.50
4578;DHT22;2301;47.354;8.528;2023-08-31T05:38:58;18.30;83.60
4578;DHT22;2301;47.354;8.528;2023-08-31T05:41:25;18.40;83.90
4578;DHT22;2301;47.354;8.528;2023-08-31T05:43:53;18.40;84.00
4578;DHT22;2301;47.354;8.528;2023-08-31T05:46:20;18.40;84.10
4578;DHT22;2301;47.354;8.528;2023-08-31T05:48:47;18.40;84.70
4578;DHT22;2301;47.354;8.528;2023-08-31T05:51:14;18.40;83.60
4578;DHT22;2301;47.354;8.528;2023-08-31T05:53:41;18.40;83.10
4578;DHT22;2301;47.354;8.528;2023-08-31T05:56:08;18.30;83.40
4578;DHT22;2301;47.354;8.528;2023-08-31T05:58:35;18.20;83.80
4578;DHT22;2301;47.354;8.528;2023-08-31T06:01:04;18.10;84.00
4578;DHT22;2301;47.354;8.528;2023-08-31T06:03:32;18.00;84.30
4578;DHT22;2301;47.354;8.528;2023-08-31T06:05:59;17.90;84.70
4578;DHT22;2301;47.354;8.528;2023-08-31T06:08:27;17.80;84.80
4578;DHT22;2301;47.354;8.528;2023-08-31T06:10:55;17.80;85.50
4578;DHT22;2301;47.354;8.528;2023-08-31T06:13:21;17.70;85.90
4578;DHT22;2301;47.354;8.528;2023-08-31T06:15:48;17.70;86.50
4578;DHT22;2301;47.354;8.528;2023-08-31T06:18:17;17.70;87.00
4578;DHT22;2301;47.354;8.528;2023-08-31T06:20:43;17.60;87.50
4578;DHT22;2301;47.354;8.528;2023-08-31T06:23:10;17.60;87.80
4578;DHT22;2301;47.354;8.528;2023-08-31T06:25:37;17.60;88.00
4578;DHT22;2301;47.354;8.528;2023-08-31T06:28:05;17.50;88.10
4578;DHT22;2301;47.354;8.528;2023-08-31T06:30:34;17.50;88.30
4578;DHT22;2301;47.354;8.528;2023-08-31T06:33:01;17.40;88.40
4578;DHT22;2301;47.354;8.528;2023-08-31T06:35:29;17.40;88.40
4578;DHT22;2301;47.354;8.528;2023-08-31T06:37:56;17.40;88.30
4578;DHT22;2301;47.354;8.528;2023-08-31T06:40:24;17.40;88.10
4578;DHT22;2301;47.354;8.528;2023-08-31T06:42:51;17.40;88.40
4578;DHT22;2301;47.354;8.528;2023-08-31T06:45:18;17.40;89.60
4578;DHT22;2301;47.354;8.528;2023-08-31T06:47:45;17.40;89.20
4578;DHT22;2301;47.354;8.528;2023-08-31T06:50:12;17.40;89.50
4578;DHT22;2301;47.354;8.528;2023-08-31T06:52:40;17.40;89.60
4578;DHT22;2301;47.354;8.528;2023-08-31T06:55:08;17.40;89.70
4578;DHT22;2301;47.354;8.528;2023-08-31T06:57:36;17.40;90.00
4578;DHT22;2301;47.354;8.528;2023-08-31T07:00:04;17.40;90.00
4578;DHT22;2301;47.354;8.528;2023-08-31T07:02:33;17.40;90.10
4578;DHT22;2301;47.354;8.528;2023-08-31T07:05:00;17.40;90.20
4578;DHT22;2301;47.354;8.528;2023-08-31T07:07:29;17.30;90.00
4578;DHT22;2301;47.354;8.528;2023-08-31T07:09:57;17.40;89.70
4578;DHT22;2301;47.354;8.528;2023-08-31T07:12:25;17.40;89.50
4578;DHT22;2301;47.354;8.528;2023-08-31T07:14:52;17.40;89.90
4578;DHT22;2301;47.354;8.528;2023-08-31T07:17:19;17.50;90.00
4578;DHT22;2301;47.354;8.528;2023-08-31T07:19:46;17.50;90.10
4578;DHT22;2301;47.354;8.528;2023-08-31T07:22:13;17.50;90.10
4578;DHT22;2301;47.354;8.528;2023-08-31T07:24:40;17.50;90.30
4578;DHT22;2301;47.354;8.528;2023-08-31T07:27:08;17.60;90.50
4578;DHT22;2301;47.354;8.528;2023-08-31T07:29:35;17.60;90.50
4578;DHT22;2301;47.354;8.528;2023-08-31T07:32:02;17.70;90.60
4578;DHT22;2301;47.354;8.528;2023-08-31T07:34:29;18.00;91.00
4578;DHT22;2301;47.354;8.528;2023-08-31T07:36:56;18.10;90.40
4578;DHT22;2301;47.354;8.528;2023-08-31T07:39:23;18.20;89.00
4578;DHT22;2301;47.354;8.528;2023-08-31T07:41:50;18.20;88.10
4578;DHT22;2301;47.354;8.528;2023-08-31T07:44:19;18.20;87.70
4578;DHT22;2301;47.354;8.528;2023-08-31T07:46:45;18.20;88.30
4578;DHT22;2301;47.354;8.528;2023-08-31T07:49:12;18.20;88.40
4578;DHT22;2301;47.354;8.528;2023-08-31T07:51:39;18.10;87.90
4578;DHT22;2301;47.354;8.528;2023-08-31T07:54:06;18.10;87.30
4578;DHT22;2301;47.354;8.528;2023-08-31T07:56:33;18.10;87.50
4578;DHT22;2301;47.354;8.528;2023-08-31T07:59:00;18.10;86.50
4578;DHT22;2301;47.354;8.528;2023-08-31T08:01:28;18.20;86.40
4578;DHT22;2301;47.354;8.528;2023-08-31T08:03:55;18.20;87.00
4578;DHT22;2301;47.354;8.528;2023-08-31T08:06:22;18.30;87.30
4578;DHT22;2301;47.354;8.528;2023-08-31T08:08:49;18.30;86.70
4578;DHT22;2301;47.354;8.528;2023-08-31T08:11:16;18.40;86.20
4578;DHT22;2301;47.354;8.528;2023-08-31T08:13:43;18.40;85.70
4578;DHT22;2301;47.354;8.528;2023-08-31T08:16:10;18.40;85.90
4578;DHT22;2301;47.354;8.528;2023-08-31T08:18:38;18.40;85.50
4578;DHT22;2301;47.354;8.528;2023-08-31T08:21:05;18.50;85.30
4578;DHT22;2301;47.354;8.528;2023-08-31T08:23:32;18.50;85.40
4578;DHT22;2301;47.354;8.528;2023-08-31T08:25:58;18.50;86.20
4578;DHT22;2301;47.354;8.528;2023-08-31T08:28:26;18.50;86.20
4578;DHT22;2301;47.354;8.528;2023-08-31T08:30:53;18.50;86.20
4578;DHT22;2301;47.354;8.528;2023-08-31T08:33:20;18.50;86.40
4578;DHT22;2301;47.354;8.528;2023-08-31T08:35:48;18.60;86.90
4578;DHT22;2301;47.354;8.528;2023-08-31T08:38:15;18.60;87.20
4578;DHT22;2301;47.354;8.528;2023-08-31T08:40:42;18.60;86.80
4578;DHT22;2301;47.354;8.528;2023-08-31T08:43:11;18.70;86.50
4578;DHT22;2301;47.354;8.528;2023-08-31T08:45:38;18.70;86.10
4578;DHT22;2301;47.354;8.528;2023-08-31T08:48:07;18.60;84.60
4578;DHT22;2301;47.354;8.528;2023-08-31T08:50:36;18.60;82.60
4578;DHT22;2301;47.354;8.528;2023-08-31T08:53:05;18.60;81.80
4578;DHT22;2301;47.354;8.528;2023-08-31T08:55:32;18.70;82.30
4578;DHT22;2301;47.354;8.528;2023-08-31T08:58:00;18.70;82.10
4578;DHT22;2301;47.354;8.528;2023-08-31T09:00:27;18.70;81.60
4578;DHT22;2301;47.354;8.528;2023-08-31T09:02:54;18.90;82.80
4578;DHT22;2301;47.354;8.528;2023-08-31T09:05:22;19.10;83.60
4578;DHT22;2301;47.354;8.528;2023-08-31T09:08:05;19.30;83.40
4578;DHT22;2301;47.354;8.528;2023-08-31T09:10:36;19.50;85.70
4578;DHT22;2301;47.354;8.528;2023-08-31T09:13:05;19.80;86.40
4578;DHT22;2301;47.354;8.528;2023-08-31T09:15:42;20.00;83.70
4578;DHT22;2301;47.354;8.528;2023-08-31T09:18:15;20.30;82.00
4578;DHT22;2301;47.354;8.528;2023-08-31T09:20:46;20.60;80.10
4578;DHT22;2301;47.354;8.528;2023-08-31T09:23:15;20.80;78.80
4578;DHT22;2301;47.354;8.528;2023-08-31T09:25:43;20.90;78.00
4578;DHT22;2301;47.354;8.528;2023-08-31T09:28:12;21.10;76.80
4578;DHT22;2301;47.354;8.528;2023-08-31T09:30:39;21.20;76.20
4578;DHT22;2301;47.354;8.528;2023-08-31T09:33:07;21.40;75.30
4578;DHT22;2301;47.354;8.528;2023-08-31T09:35:38;21.50;75.30
4578;DHT22;2301;47.354;8.528;2023-08-31T09:38:09;21.50;73.90
4578;DHT22;2301;47.354;8.528;2023-08-31T09:40:42;21.60;73.80
4578;DHT22;2301;47.354;8.528;2023-08-31T09:43:18;21.60;73.70
4578;DHT22;2301;47.354;8.528;2023-08-31T09:45:46;21.70;73.60
4578;DHT22;2301;47.354;8.528;2023-08-31T09:48:15;21.70;73.50
4578;DHT22;2301;47.354;8.528;2023-08-31T09:50:44;21.60;73.00
4578;DHT22;2301;47.354;8.528;2023-08-31T09:53:11;21.60;73.30
4578;DHT22;2301;47.354;8.528;2023-08-31T09:55:40;21.60;73.60
4578;DHT22;2301;47.354;8.528;2023-08-31T09:58:08;21.60;73.10
4578;DHT22;2301;47.354;8.528;2023-08-31T10:00:37;21.50;72.20
4578;DHT22;2301;47.354;8.528;2023-08-31T10:03:06;21.40;71.40
4578;DHT22;2301;47.354;8.528;2023-08-31T10:05:37;21.30;71.00
4578;DHT22;2301;47.354;8.528;2023-08-31T10:08:05;21.20;70.80
4578;DHT22;2301;47.354;8.528;2023-08-31T10:10:33;21.10;70.70
4578;DHT22;2301;47.354;8.528;2023-08-31T10:13:04;21.00;70.60
4578;DHT22;2301;47.354;8.528;2023-08-31T10:15:32;20.90;70.50
4578;DHT22;2301;47.354;8.528;2023-08-31T10:18:00;20.80;70.40
4578;DHT22;2301;47.354;8.528;2023-08-31T10:20:29;20.70;71.20
4578;DHT22;2301;47.354;8.528;2023-08-31T10:22:57;20.70;70.80
4578;DHT22;2301;47.354;8.528;2023-08-31T10:25:24;20.60;70.20
4578;DHT22;2301;47.354;8.528;2023-08-31T10:27:52;20.50;69.80
4578;DHT22;2301;47.354;8.528;2023-08-31T10:30:29;20.50;70.40
4578;DHT22;2301;47.354;8.528;2023-08-31T10:33:22;20.40;70.80
4578;DHT22;2301;47.354;8.528;2023-08-31T10:35:54;20.40;71.50
4578;DHT22;2301;47.354;8.528;2023-08-31T10:38:26;20.30;71.30
4578;DHT22;2301;47.354;8.528;2023-08-31T10:41:17;20.40;70.40
4578;DHT22;2301;47.354;8.528;2023-08-31T10:43:47;20.30;69.20
4578;DHT22;2301;47.354;8.528;2023-08-31T10:46:18;20.40;69.20
4578;DHT22;2301;47.354;8.528;2023-08-31T10:48:53;20.30;68.90
4578;DHT22;2301;47.354;8.528;2023-08-31T10:51:24;20.30;69.40
4578;DHT22;2301;47.354;8.528;2023-08-31T10:53:52;20.20;69.90
4578;DHT22;2301;47.354;8.528;2023-08-31T10:56:19;20.20;71.00
4578;DHT22;2301;47.354;8.528;2023-08-31T10:58:59;20.20;71.80
4578;DHT22;2301;47.354;8.528;2023-08-31T11:01:53;20.20;71.30
4578;DHT22;2301;47.354;8.528;2023-08-31T11:04:20;20.20;70.50
4578;DHT22;2301;47.354;8.528;2023-08-31T11:06:48;20.10;70.60
4578;DHT22;2301;47.354;8.528;2023-08-31T11:09:19;20.10;70.30
4578;DHT22;2301;47.354;8.528;2023-08-31T11:11:46;20.10;69.80
4578;DHT22;2301;47.354;8.528;2023-08-31T11:14:14;20.10;69.90
4578;DHT22;2301;47.354;8.528;2023-08-31T11:16:41;20.20;70.30
4578;DHT22;2301;47.354;8.528;2023-08-31T11:19:10;20.20;69.70
4578;DHT22;2301;47.354;8.528;2023-08-31T11:21:37;20.30;69.70
4578;DHT22;2301;47.354;8.528;2023-08-31T11:24:05;20.40;69.30
4578;DHT22;2301;47.354;8.528;2023-08-31T11:26:32;20.40;68.50
4578;DHT22;2301;47.354;8.528;2023-08-31T11:29:00;20.40;68.70
4578;DHT22;2301;47.354;8.528;2023-08-31T11:31:27;20.50;69.00
4578;DHT22;2301;47.354;8.528;2023-08-31T11:33:54;20.50;68.50
4578;DHT22;2301;47.354;8.528;2023-08-31T11:36:24;20.50;68.40
4578;DHT22;2301;47.354;8.528;2023-08-31T11:38:52;20.60;69.00
4578;DHT22;2301;47.354;8.528;2023-08-31T11:41:19;20.60;68.90
4578;DHT22;2301;47.354;8.528;2023-08-31T11:43:47;20.60;68.60
4578;DHT22;2301;47.354;8.528;2023-08-31T11:46:15;20.60;68.30
4578;DHT22;2301;47.354;8.528;2023-08-31T11:48:42;20.60;68.70
4578;DHT22;2301;47.354;8.528;2023-08-31T11:51:10;20.70;68.50
4578;DHT22;2301;47.354;8.528;2023-08-31T11:53:39;20.70;67.90
4578;DHT22;2301;47.354;8.528;2023-08-31T11:56:06;20.80;68.00
4578;DHT22;2301;47.354;8.528;2023-08-31T11:58:40;20.90;68.20
4578;DHT22;2301;47.354;8.528;2023-08-31T12:01:08;20.90;67.30
4578;DHT22;2301;47.354;8.528;2023-08-31T12:03:43;20.90;67.50
4578;DHT22;2301;47.354;8.528;2023-08-31T12:06:11;21.00;67.60
4578;DHT22;2301;47.354;8.528;2023-08-31T12:08:39;21.00;67.50
4578;DHT22;2301;47.354;8.528;2023-08-31T12:11:06;21.00;66.70
4578;DHT22;2301;47.354;8.528;2023-08-31T12:13:33;21.00;67.30
4578;DHT22;2301;47.354;8.528;2023-08-31T12:16:00;20.90;67.30
4578;DHT22;2301;47.354;8.528;2023-08-31T12:18:30;20.90;67.70
4578;DHT22;2301;47.354;8.528;2023-08-31T12:20:58;20.90;67.70
4578;DHT22;2301;47.354;8.528;2023-08-31T12:23:25;20.90;68.30
4578;DHT22;2301;47.354;8.528;2023-08-31T12:25:54;20.90;68.30
4578;DHT22;2301;47.354;8.528;2023-08-31T12:28:22;20.90;67.80
4578;DHT22;2301;47.354;8.528;2023-08-31T12:30:51;21.00;67.30
4578;DHT22;2301;47.354;8.528;2023-08-31T12:33:19;21.00;67.10
4578;DHT22;2301;47.354;8.528;2023-08-31T12:35:47;21.10;67.50
4578;DHT22;2301;47.354;8.528;2023-08-31T12:38:14;21.20;67.30
4578;DHT22;2301;47.354;8.528;2023-08-31T12:40:40;21.30;67.10
4578;DHT22;2301;47.354;8.528;2023-08-31T12:43:09;21.30;66.60
4578;DHT22;2301;47.354;8.528;2023-08-31T12:45:36;21.40;67.20
4578;DHT22;2301;47.354;8.528;2023-08-31T12:48:04;21.40;65.20
4578;DHT22;2301;47.354;8.528;2023-08-31T12:50:31;21.40;64.50
4578;DHT22;2301;47.354;8.528;2023-08-31T12:52:58;21.40;65.10
4578;DHT22;2301;47.354;8.528;2023-08-31T12:55:25;21.40;65.10
4578;DHT22;2301;47.354;8.528;2023-08-31T12:57:52;21.50;65.00
4578;DHT22;2301;47.354;8.528;2023-08-31T13:00:20;21.60;64.00
4578;DHT22;2301;47.354;8.528;2023-08-31T13:02:47;21.60;63.30
4578;DHT22;2301;47.354;8.528;2023-08-31T13:05:16;21.70;64.50
4578;DHT22;2301;47.354;8.528;2023-08-31T13:07:43;21.80;64.10
4578;DHT22;2301;47.354;8.528;2023-08-31T13:10:10;21.80;63.70
4578;DHT22;2301;47.354;8.528;2023-08-31T13:12:36;21.80;63.20
4578;DHT22;2301;47.354;8.528;2023-08-31T13:15:04;21.90;62.80
4578;DHT22;2301;47.354;8.528;2023-08-31T13:17:34;21.90;63.40
4578;DHT22;2301;47.354;8.528;2023-08-31T13:20:01;21.90;64.00
4578;DHT22;2301;47.354;8.528;2023-08-31T13:22:29;21.90;64.00
4578;DHT22;2301;47.354;8.528;2023-08-31T13:24:56;21.80;65.60
4578;DHT22;2301;47.354;8.528;2023-08-31T13:27:23;21.80;65.10
4578;DHT22;2301;47.354;8.528;2023-08-31T13:29:51;21.80;65.20
4578;DHT22;2301;47.354;8.528;2023-08-31T13:32:19;21.80;64.60
4578;DHT22;2301;47.354;8.528;2023-08-31T13:34:47;21.80;64.40
4578;DHT22;2301;47.354;8.528;2023-08-31T13:37:14;21.70;63.90
4578;DHT22;2301;47.354;8.528;2023-08-31T13:39:41;21.80;64.40
4578;DHT22;2301;47.354;8.528;2023-08-31T13:42:08;21.80;64.70
4578;DHT22;2301;47.354;8.528;2023-08-31T13:44:35;21.80;65.00
4578;DHT22;2301;47.354;8.528;2023-08-31T13:47:02;21.80;65.10
4578;DHT22;2301;47.354;8.528;2023-08-31T13:49:31;21.70;64.00
4578;DHT22;2301;47.354;8.528;2023-08-31T13:51:59;21.70;63.50
4578;DHT22;2301;47.354;8.528;2023-08-31T13:54:27;21.70;63.60
4578;DHT22;2301;47.354;8.528;2023-08-31T13:56:57;21.70;64.10
4578;DHT22;2301;47.354;8.528;2023-08-31T13:59:25;21.60;63.90
4578;DHT22;2301;47.354;8.528;2023-08-31T14:01:53;21.60;63.70
4578;DHT22;2301;47.354;8.528;2023-08-31T14:04:20;21.60;63.90
4578;DHT22;2301;47.354;8.528;2023-08-31T14:06:47;21.60;64.80
4578;DHT22;2301;47.354;8.528;2023-08-31T14:09:16;21.50;65.10
4578;DHT22;2301;47.354;8.528;2023-08-31T14:11:44;21.50;64.70
4578;DHT22;2301;47.354;8.528;2023-08-31T14:14:11;21.50;65.30
4578;DHT22;2301;47.354;8.528;2023-08-31T14:16:38;21.50;64.40
4578;DHT22;2301;47.354;8.528;2023-08-31T14:19:05;21.50;64.90
4578;DHT22;2301;47.354;8.528;2023-08-31T14:21:32;21.50;64.10
4578;DHT22;2301;47.354;8.528;2023-08-31T14:23:59;21.50;64.60
4578;DHT22;2301;47.354;8.528;2023-08-31T14:26:27;21.60;65.20
4578;DHT22;2301;47.354;8.528;2023-08-31T14:28:54;21.50;64.40
4578;DHT22;2301;47.354;8.528;2023-08-31T14:31:21;21.60;64.50
4578;DHT22;2301;47.354;8.528;2023-08-31T14:33:48;21.50;64.10
4578;DHT22;2301;47.354;8.528;2023-08-31T14:36:16;21.50;64.70
4578;DHT22;2301;47.354;8.528;2023-08-31T14:38:43;21.50;66.30
4578;DHT22;2301;47.354;8.528;2023-08-31T14:41:11;21.50;67.50
4578;DHT22;2301;47.354;8.528;2023-08-31T14:43:39;21.50;66.20
4578;DHT22;2301;47.354;8.528;2023-08-31T14:46:06;21.50;65.50
4578;DHT22;2301;47.354;8.528;2023-08-31T14:48:33;21.50;65.10
4578;DHT22;2301;47.354;8.528;2023-08-31T14:50:59;21.50;64.60
4578;DHT22;2301;47.354;8.528;2023-08-31T14:53:27;21.60;64.70
4578;DHT22;2301;47.354;8.528;2023-08-31T14:55:54;21.60;64.90
4578;DHT22;2301;47.354;8.528;2023-08-31T14:58:21;21.60;65.50
4578;DHT22;2301;47.354;8.528;2023-08-31T15:00:49;21.60;64.40
4578;DHT22;2301;47.354;8.528;2023-08-31T15:03:16;21.60;64.20
4578;DHT22;2301;47.354;8.528;2023-08-31T15:05:43;21.60;64.60
4578;DHT22;2301;47.354;8.528;2023-08-31T15:08:10;21.60;64.90
4578;DHT22;2301;47.354;8.528;2023-08-31T15:10:38;21.60;64.60
4578;DHT22;2301;47.354;8.528;2023-08-31T15:13:05;21.60;65.50
4578;DHT22;2301;47.354;8.528;2023-08-31T15:15:32;21.60;64.70
4578;DHT22;2301;47.354;8.528;2023-08-31T15:18:01;21.60;63.80
4578;DHT22;2301;47.354;8.528;2023-08-31T15:20:28;21.50;63.60
4578;DHT22;2301;47.354;8.528;2023-08-31T15:22:55;21.50;64.20
4578;DHT22;2301;47.354;8.528;2023-08-31T15:25:22;21.50;64.80
4578;DHT22;2301;47.354;8.528;2023-08-31T15:27:49;21.50;64.20
4578;DHT22;2301;47.354;8.528;2023-08-31T15:30:16;21.40;63.30
4578;DHT22;2301;47.354;8.528;2023-08-31T15:32:43;21.40;64.10
4578;DHT22;2301;47.354;8.528;2023-08-31T15:35:11;21.40;64.60
4578;DHT22;2301;47.354;8.528;2023-08-31T15:37:39;21.30;64.70
4578;DHT22;2301;47.354;8.528;2023-08-31T15:40:07;21.30;65.10
4578;DHT22;2301;47.354;8.528;2023-08-31T15:42:34;21.30;65.30
4578;DHT22;2301;47.354;8.528;2023-08-31T15:45:01;21.20;65.00
4578;DHT22;2301;47.354;8.528;2023-08-31T15:47:29;21.20;64.70
4578;DHT22;2301;47.354;8.528;2023-08-31T15:49:55;21.10;64.90
4578;DHT22;2301;47.354;8.528;2023-08-31T15:52:24;21.20;65.50
4578;DHT22;2301;47.354;8.528;2023-08-31T15:54:51;21.20;66.50
4578;DHT22;2301;47.354;8.528;2023-08-31T15:57:18;21.10;67.50
4578;DHT22;2301;47.354;8.528;2023-08-31T15:59:46;21.10;67.30
4578;DHT22;2301;47.354;8.528;2023-08-31T16:02:13;21.10;67.10
4578;DHT22;2301;47.354;8.528;2023-08-31T16:04:41;21.10;65.80
4578;DHT22;2301;47.354;8.528;2023-08-31T16:07:09;21.10;65.60